Time;durP1;ratioP1;P1;durP2;ratioP2;P2;SDS_P1;SDS_P2;PMS_P1;PMS_P2;Temp;Humidity;BMP_temperature;BMP_pressure;BME280_temperature;BME280_humidity;BME280_pressure;Samples;Min_cycle;Max_cycle;Signal;HPM_P1;HPM_P2
2021/06/21 00:02:21;;;;;;;6.18;2.13;;;17.30;99.90;;;;;;5046307;28;20390;-71
2021/06/21 00:04:51;;;;;;;3.60;1.52;;;17.30;99.90;;;;;;5046155;28;20124;-70
2021/06/21 00:07:17;;;;;;;2.47;1.02;;;17.30;99.90;;;;;;5061777;28;20040;-72
2021/06/21 00:09:43;;;;;;;2.70;1.40;;;17.40;99.90;;;;;;5046076;28;20029;-70
2021/06/21 00:12:11;;;;;;;1.77;1.08;;;17.20;99.90;;;;;;5045500;28;20022;-70
2021/06/21 00:14:38;;;;;;;1.48;1.35;;;17.30;99.90;;;;;;5045597;28;20029;-71
2021/06/21 00:17:03;;;;;;;1.77;1.20;;;17.20;99.90;;;;;;5045739;28;20040;-71
2021/06/21 00:19:29;;;;;;;4.00;1.77;;;17.20;99.90;;;;;;5045442;28;20030;-70
2021/06/21 00:21:56;;;;;;;6.78;1.73;;;17.20;99.90;;;;;;5045701;28;20053;-70
2021/06/21 00:24:22;;;;;;;5.15;1.20;;;17.30;99.90;;;;;;5045996;28;20033;-70
2021/06/21 00:26:49;;;;;;;1.52;1.08;;;17.30;99.90;;;;;;5045650;28;20780;-70
2021/06/21 00:29:15;;;;;;;2.20;1.48;;;17.20;99.90;;;;;;5045676;28;20045;-70
2021/06/21 00:31:41;;;;;;;3.30;1.60;;;17.20;99.90;;;;;;5045514;28;20040;-70
2021/06/21 00:34:07;;;;;;;1.42;1.10;;;17.20;99.90;;;;;;5045016;28;20037;-70
2021/06/21 00:36:32;;;;;;;3.47;1.80;;;17.20;99.90;;;;;;5045483;28;20151;-70
2021/06/21 00:38:58;;;;;;;5.72;1.23;;;17.00;99.90;;;;;;5045486;28;20021;-69
2021/06/21 00:41:24;;;;;;;1.92;1.10;;;17.00;99.90;;;;;;5045359;28;20025;-74
2021/06/21 00:43:50;;;;;;;1.70;1.17;;;17.00;99.90;;;;;;5045614;28;20090;-70
2021/06/21 00:46:16;;;;;;;3.53;1.35;;;16.90;99.90;;;;;;5044848;28;20033;-72
2021/06/21 00:48:41;;;;;;;2.85;1.48;;;16.90;99.90;;;;;;5044885;28;20029;-68
2021/06/21 00:51:08;;;;;;;2.85;1.40;;;16.90;99.90;;;;;;5044266;28;20076;-70
2021/06/21 00:53:35;;;;;;;4.97;1.27;;;16.90;99.90;;;;;;5044694;28;20123;-70
2021/06/21 00:56:00;;;;;;;1.30;0.85;;;16.90;99.90;;;;;;5044768;28;20026;-69
2021/06/21 00:58:27;;;;;;;3.28;1.42;;;16.80;99.90;;;;;;5044609;28;20389;-70
2021/06/21 01:00:53;;;;;;;2.45;1.30;;;16.90;99.90;;;;;;5044513;28;20029;-72
2021/06/21 01:03:20;;;;;;;1.45;1.05;;;16.80;99.90;;;;;;5045627;28;20063;-73
2021/06/21 01:05:45;;;;;;;1.23;0.75;;;16.90;99.90;;;;;;5045400;28;20026;-71
2021/06/21 01:08:11;;;;;;;1.35;0.93;;;16.80;99.90;;;;;;5044783;28;20094;-73
2021/06/21 01:10:43;;;;;;;2.97;1.00;;;16.90;99.90;;;;;;5045310;28;20025;-72
2021/06/21 01:13:19;;;;;;;0.90;0.80;;;16.80;99.90;;;;;;5045041;28;20569;-70
2021/06/21 01:16:11;;;;;;;0.73;0.70;;;16.90;99.90;;;;;;5044839;28;20104;-69
2021/06/21 01:18:38;;;;;;;3.00;1.27;;;16.90;99.90;;;;;;5033569;28;20041;-70
2021/06/21 01:21:18;;;;;;;2.05;1.45;;;16.80;99.90;;;;;;5044862;28;20052;-70
2021/06/21 01:24:08;;;;;;;3.55;1.65;;;16.90;99.90;;;;;;5044094;28;20481;-71
2021/06/21 01:26:51;;;;;;;2.45;1.30;;;16.90;99.90;;;;;;5044660;28;20037;-69
2021/06/21 01:29:46;;;;;;;2.13;0.82;;;16.80;99.90;;;;;;5044531;28;20486;-70
2021/06/21 01:32:18;;;;;;;2.35;1.13;;;16.80;99.90;;;;;;5060126;28;20029;-70
2021/06/21 01:34:49;;;;;;;2.72;1.30;;;16.80;99.90;;;;;;5044333;28;20034;-72
2021/06/21 01:37:18;;;;;;;2.38;1.45;;;16.70;99.90;;;;;;5044204;28;20048;-71
2021/06/21 01:39:47;;;;;;;2.47;1.20;;;16.80;99.90;;;;;;5044318;28;20095;-71
2021/06/21 01:42:15;;;;;;;2.05;0.88;;;16.80;99.90;;;;;;5044164;28;20045;-71
2021/06/21 01:44:49;;;;;;;1.55;1.00;;;16.70;99.90;;;;;;5044324;28;20030;-70
2021/06/21 01:47:16;;;;;;;3.85;1.58;;;16.80;99.90;;;;;;5044801;28;20034;-69
2021/06/21 01:49:48;;;;;;;2.63;1.20;;;16.80;99.90;;;;;;5043830;28;20025;-70
2021/06/21 01:52:16;;;;;;;2.42;1.35;;;16.70;99.90;;;;;;5043466;28;20034;-69
2021/06/21 01:54:50;;;;;;;2.92;1.52;;;16.80;99.90;;;;;;5044395;28;20036;-71
2021/06/21 01:57:22;;;;;;;2.13;1.30;;;16.70;99.90;;;;;;5043682;28;20056;-71
2021/06/21 01:59:50;;;;;;;1.75;0.75;;;16.70;99.90;;;;;;5044208;28;20488;-72
2021/06/21 02:02:17;;;;;;;2.28;1.08;;;16.80;99.90;;;;;;5044311;28;20140;-72
2021/06/21 02:04:45;;;;;;;1.30;1.10;;;16.70;99.90;;;;;;5043144;28;20090;-72
2021/06/21 02:07:11;;;;;;;4.03;1.88;;;16.70;99.90;;;;;;5043850;28;20056;-71
2021/06/21 02:09:38;;;;;;;2.75;1.20;;;16.70;99.90;;;;;;5049508;28;20036;-69
2021/06/21 02:12:05;;;;;;;4.97;1.92;;;16.60;99.90;;;;;;5049911;28;20030;-70
2021/06/21 02:14:32;;;;;;;1.05;0.95;;;16.60;99.90;;;;;;5050488;28;20076;-71
2021/06/21 02:16:59;;;;;;;2.42;1.38;;;16.60;99.90;;;;;;5050641;28;20386;-69
2021/06/21 02:19:29;;;;;;;3.10;1.35;;;16.60;99.90;;;;;;5050185;28;20032;-71
2021/06/21 02:21:56;;;;;;;4.80;1.50;;;16.60;99.90;;;;;;5050953;28;20056;-70
2021/06/21 02:24:22;;;;;;;1.95;1.42;;;16.60;99.90;;;;;;5050395;28;20089;-72
2021/06/21 02:26:49;;;;;;;2.65;1.40;;;16.50;99.90;;;;;;5050756;28;20049;-70
2021/06/21 02:29:19;;;;;;;1.10;0.90;;;16.50;99.90;;;;;;5050781;28;20036;-71
2021/06/21 02:31:46;;;;;;;2.88;1.60;;;16.50;99.90;;;;;;5050746;28;20037;-72
2021/06/21 02:34:12;;;;;;;3.45;1.48;;;16.40;99.90;;;;;;5050107;28;20059;-72
2021/06/21 02:36:38;;;;;;;1.25;1.02;;;16.50;99.90;;;;;;5050603;28;20062;-71
2021/06/21 02:39:06;;;;;;;7.30;1.15;;;16.40;99.90;;;;;;5050210;28;20060;-72
2021/06/21 02:41:32;;;;;;;2.60;1.13;;;16.40;99.90;;;;;;5050471;28;20036;-72
2021/06/21 02:43:58;;;;;;;1.60;1.00;;;16.30;99.90;;;;;;5050251;28;20157;-68
2021/06/21 02:46:24;;;;;;;2.88;1.38;;;16.30;99.90;;;;;;5050589;28;20025;-70
2021/06/21 02:48:50;;;;;;;3.28;1.35;;;16.40;99.90;;;;;;5050389;28;20033;-70
2021/06/21 02:51:38;;;;;;;9.05;1.08;;;16.30;99.90;;;;;;5049912;28;20057;-70
2021/06/21 02:54:09;;;;;;;1.05;0.90;;;16.30;99.90;;;;;;5049879;28;20105;-71
2021/06/21 02:56:44;;;;;;;1.55;1.15;;;16.30;99.90;;;;;;5049923;28;20057;-70
2021/06/21 02:59:13;;;;;;;3.15;1.35;;;16.30;99.90;;;;;;5065363;28;20033;-69
2021/06/21 03:01:50;;;;;;;2.53;1.30;;;16.30;99.90;;;;;;5049954;28;20033;-69
2021/06/21 03:04:18;;;;;;;4.28;1.15;;;16.30;99.90;;;;;;5050119;28;20542;-70
2021/06/21 03:06:46;;;;;;;3.53;1.52;;;16.30;99.90;;;;;;5050565;28;20035;-75
2021/06/21 03:09:14;;;;;;;2.15;1.35;;;16.20;99.90;;;;;;5050441;28;20020;-75
2021/06/21 03:11:42;;;;;;;2.50;1.50;;;16.20;99.90;;;;;;5050365;28;20044;-78
2021/06/21 03:14:08;;;;;;;2.33;1.40;;;16.20;99.90;;;;;;5050046;28;20037;-76
2021/06/21 03:16:35;;;;;;;6.97;2.35;;;16.10;99.90;;;;;;5049676;28;20035;-75
2021/06/21 03:19:01;;;;;;;2.97;1.52;;;16.20;99.90;;;;;;5050297;28;20041;-80
2021/06/21 03:21:27;;;;;;;4.53;1.27;;;16.10;99.90;;;;;;5060933;28;20033;-79
2021/06/21 03:23:54;;;;;;;5.70;1.67;;;16.00;99.90;;;;;;5062100;28;20061;-80
2021/06/21 03:26:28;;;;;;;2.72;1.20;;;16.10;99.90;;;;;;5047181;28;20029;-75
2021/06/21 03:28:55;;;;;;;1.73;1.30;;;16.00;99.90;;;;;;5047085;28;20113;-73
2021/06/21 03:31:22;;;;;;;2.28;1.42;;;16.00;99.90;;;;;;5046442;28;20064;-73
2021/06/21 03:33:49;;;;;;;4.32;1.85;;;15.90;99.90;;;;;;5046985;28;20041;-71
2021/06/21 03:36:14;;;;;;;5.05;1.75;;;15.90;99.90;;;;;;5046170;28;20022;-73
2021/06/21 03:38:40;;;;;;;3.40;2.00;;;15.90;99.90;;;;;;5046641;28;20045;-73
2021/06/21 03:41:06;;;;;;;4.55;1.75;;;15.80;99.90;;;;;;5046207;28;20025;-73
2021/06/21 03:43:33;;;;;;;4.57;2.42;;;15.70;99.90;;;;;;5045614;28;20109;-72
2021/06/21 03:46:02;;;;;;;5.03;2.38;;;15.70;99.90;;;;;;5046304;28;20061;-71
2021/06/21 03:48:29;;;;;;;4.35;1.98;;;15.60;99.90;;;;;;5046315;28;20037;-71
2021/06/21 03:50:56;;;;;;;4.30;2.10;;;15.60;99.90;;;;;;5061516;28;20049;-74
2021/06/21 03:53:25;;;;;;;5.50;2.60;;;15.50;99.90;;;;;;5062020;28;20040;-78
2021/06/21 03:55:51;;;;;;;3.53;2.20;;;15.50;99.90;;;;;;5046543;28;20044;-75
2021/06/21 03:58:17;;;;;;;4.82;2.25;;;15.40;99.90;;;;;;5061515;28;20033;-76
2021/06/21 04:00:44;;;;;;;3.95;2.15;;;15.40;99.90;;;;;;5061487;28;20032;-77
2021/06/21 04:03:10;;;;;;;4.88;2.58;;;15.40;99.90;;;;;;5060783;28;20068;-76
2021/06/21 04:05:37;;;;;;;5.22;2.45;;;15.20;99.90;;;;;;5046379;28;20029;-74
2021/06/21 04:08:08;;;;;;;5.15;2.95;;;15.30;99.90;;;;;;5046171;28;20025;-78
2021/06/21 04:10:35;;;;;;;3.30;1.90;;;15.30;99.90;;;;;;5045737;28;20042;-77
2021/06/21 04:13:02;;;;;;;3.83;2.53;;;15.30;99.90;;;;;;5061343;28;20049;-76
2021/06/21 04:15:29;;;;;;;4.28;2.40;;;15.20;99.90;;;;;;5045872;28;20025;-74
2021/06/21 04:17:57;;;;;;;3.95;2.28;;;15.20;99.90;;;;;;5045604;28;20029;-76
2021/06/21 04:20:23;;;;;;;4.97;2.35;;;15.10;99.90;;;;;;5045697;28;20036;-75
2021/06/21 04:22:49;;;;;;;4.32;2.45;;;15.20;99.90;;;;;;5046370;28;20029;-73
2021/06/21 04:25:17;;;;;;;3.35;2.13;;;15.20;99.90;;;;;;5060814;28;20048;-74
2021/06/21 04:27:43;;;;;;;3.75;2.30;;;15.20;99.90;;;;;;5045893;28;20040;-75
2021/06/21 04:30:11;;;;;;;2.78;1.80;;;15.20;99.90;;;;;;5045576;28;20045;-71
2021/06/21 04:32:37;;;;;;;3.38;2.65;;;15.20;99.90;;;;;;5044967;28;20470;-69
2021/06/21 04:35:06;;;;;;;4.22;1.95;;;15.20;99.90;;;;;;5045329;28;20031;-70
2021/06/21 04:37:31;;;;;;;2.80;1.70;;;15.20;99.90;;;;;;5045098;28;20033;-71
2021/06/21 04:39:57;;;;;;;3.70;2.35;;;15.30;99.90;;;;;;5061007;28;20037;-71
2021/06/21 04:42:23;;;;;;;5.00;2.50;;;15.20;99.90;;;;;;5060934;28;20028;-71
2021/06/21 04:44:48;;;;;;;3.97;2.38;;;15.20;99.90;;;;;;5045629;28;20512;-70
2021/06/21 04:47:14;;;;;;;6.93;2.45;;;15.20;99.90;;;;;;5045331;28;20033;-70
2021/06/21 04:49:40;;;;;;;2.35;1.70;;;15.20;99.90;;;;;;5045414;28;20404;-70
2021/06/21 04:52:10;;;;;;;5.60;1.98;;;15.20;99.90;;;;;;5045432;28;20041;-70
2021/06/21 04:54:36;;;;;;;3.13;2.00;;;15.20;99.90;;;;;;5045049;28;20056;-72
2021/06/21 04:57:02;;;;;;;2.55;1.35;;;15.20;99.90;;;;;;5045233;28;20026;-70
2021/06/21 04:59:27;;;;;;;4.68;2.08;;;15.10;99.90;;;;;;5045056;28;20022;-71
2021/06/21 05:01:53;;;;;;;13.27;2.22;;;15.00;99.90;;;;;;5044954;28;20050;-70
2021/06/21 05:04:18;;;;;;;4.07;1.77;;;15.00;99.90;;;;;;5044527;28;20041;-71
2021/06/21 05:06:44;;;;;;;2.97;1.90;;;15.00;99.90;;;;;;5045052;28;20034;-70
2021/06/21 05:09:11;;;;;;;3.47;1.95;;;15.00;99.90;;;;;;5045048;28;20021;-71
2021/06/21 05:11:37;;;;;;;3.05;1.63;;;15.00;99.90;;;;;;5045062;28;20025;-70
2021/06/21 05:14:03;;;;;;;2.78;1.85;;;14.90;99.90;;;;;;5044653;28;20033;-72
2021/06/21 05:16:29;;;;;;;1.67;1.52;;;15.00;99.90;;;;;;5044369;28;20041;-72
2021/06/21 05:18:55;;;;;;;3.60;2.13;;;15.00;99.90;;;;;;5045297;28;20071;-70
2021/06/21 05:21:21;;;;;;;6.93;1.70;;;15.00;99.90;;;;;;5044806;28;20076;-74
2021/06/21 05:23:47;;;;;;;2.63;1.67;;;14.90;99.90;;;;;;5045400;28;20037;-72
2021/06/21 05:26:13;;;;;;;13.60;2.05;;;14.90;99.90;;;;;;5045083;28;20446;-70
2021/06/21 05:28:38;;;;;;;7.35;1.80;;;14.90;99.90;;;;;;5044331;28;20038;-71
2021/06/21 05:31:04;;;;;;;2.55;1.98;;;14.90;99.90;;;;;;5044840;28;20068;-72
2021/06/21 05:33:29;;;;;;;2.92;1.75;;;14.90;99.90;;;;;;5043952;28;20044;-73
2021/06/21 05:35:55;;;;;;;2.50;1.50;;;14.90;99.90;;;;;;5044184;28;20081;-72
2021/06/21 05:38:21;;;;;;;3.03;1.88;;;14.90;99.90;;;;;;5060277;28;20025;-72
2021/06/21 05:40:47;;;;;;;4.15;2.28;;;14.90;99.90;;;;;;5042104;28;20049;-73
2021/06/21 05:43:12;;;;;;;5.03;2.03;;;14.90;99.90;;;;;;5058871;28;20025;-75
2021/06/21 05:45:38;;;;;;;1.55;1.33;;;14.90;99.90;;;;;;5044780;28;20044;-74
2021/06/21 05:48:04;;;;;;;4.05;1.73;;;14.90;99.90;;;;;;5043899;28;20025;-74
2021/06/21 05:50:30;;;;;;;2.78;1.70;;;15.00;99.90;;;;;;5044034;28;20055;-75
2021/06/21 05:52:56;;;;;;;4.30;2.45;;;14.90;99.90;;;;;;5042879;28;20081;-75
2021/06/21 05:55:23;;;;;;;2.67;1.58;;;15.00;99.90;;;;;;5043886;28;20040;-76
2021/06/21 05:57:53;;;;;;;2.95;1.70;;;15.00;99.90;;;;;;5044357;28;20469;-74
2021/06/21 06:00:21;;;;;;;5.15;2.22;;;15.00;99.90;;;;;;5044254;28;20038;-77
2021/06/21 06:02:47;;;;;;;2.15;1.55;;;15.00;99.90;;;;;;5058860;28;20026;-74
2021/06/21 06:05:14;;;;;;;2.97;1.67;;;15.00;99.90;;;;;;5044065;28;20033;-74
2021/06/21 06:07:40;;;;;;;2.95;2.05;;;15.00;99.90;;;;;;5043242;28;20025;-75
2021/06/21 06:10:07;;;;;;;2.17;1.38;;;15.00;99.90;;;;;;5043727;28;20059;-74
2021/06/21 06:12:33;;;;;;;2.17;1.67;;;14.90;99.90;;;;;;5044343;28;20033;-74
2021/06/21 06:14:59;;;;;;;1.83;1.10;;;14.90;99.90;;;;;;5043971;28;20101;-74
2021/06/21 06:17:25;;;;;;;2.65;1.55;;;14.90;99.90;;;;;;5044274;28;20026;-76
2021/06/21 06:19:51;;;;;;;2.65;1.55;;;14.90;99.90;;;;;;5044066;28;20112;-76
2021/06/21 06:22:17;;;;;;;2.90;1.77;;;14.90;99.90;;;;;;5043379;28;20029;-74
2021/06/21 06:24:42;;;;;;;2.13;1.35;;;14.80;99.90;;;;;;5042254;28;20551;-78
2021/06/21 06:27:08;;;;;;;1.65;1.00;;;14.90;99.90;;;;;;5041023;28;20037;-73
2021/06/21 06:29:34;;;;;;;6.13;1.30;;;14.90;99.90;;;;;;5043809;28;20041;-76
2021/06/21 06:32:01;;;;;;;1.75;1.10;;;14.80;99.90;;;;;;5043399;28;20025;-76
2021/06/21 06:34:27;;;;;;;1.75;1.25;;;14.80;99.90;;;;;;5043396;28;20038;-76
2021/06/21 06:36:54;;;;;;;13.20;1.48;;;14.80;99.90;;;;;;5042655;28;20026;-76
2021/06/21 06:39:20;;;;;;;3.25;1.50;;;14.80;99.90;;;;;;5043155;28;20029;-77
2021/06/21 06:41:47;;;;;;;2.78;1.58;;;14.70;99.90;;;;;;5039502;28;20452;-79
2021/06/21 06:44:12;;;;;;;2.03;1.20;;;14.70;99.90;;;;;;5038711;28;20058;-76
2021/06/21 06:46:38;;;;;;;1.35;1.00;;;14.80;99.90;;;;;;5039592;28;20026;-77
2021/06/21 06:49:04;;;;;;;3.20;1.27;;;14.80;99.90;;;;;;5038799;28;20040;-79
2021/06/21 06:51:36;;;;;;;1.67;1.00;;;14.80;99.90;;;;;;5039004;28;20490;-79
2021/06/21 06:54:04;;;;;;;2.45;1.42;;;14.80;99.90;;;;;;5039225;28;20042;-80
2021/06/21 06:59:16;;;;;;;1.55;0.85;;;14.80;99.90;;;;;;5027570;28;20041;-82
2021/06/21 07:01:42;;;;;;;8.45;1.65;;;14.70;99.90;;;;;;5042000;28;20030;-77
2021/06/21 07:04:08;;;;;;;2.90;1.33;;;14.80;99.90;;;;;;5051275;28;20025;-76
2021/06/21 07:06:34;;;;;;;1.25;0.95;;;14.70;99.90;;;;;;5047071;28;20025;-77
2021/06/21 07:08:59;;;;;;;2.40;1.20;;;14.80;99.90;;;;;;5045605;28;20145;-76
2021/06/21 07:11:26;;;;;;;1.20;1.00;;;14.80;99.90;;;;;;5047162;28;20026;-75
2021/06/21 07:13:52;;;;;;;1.58;0.98;;;14.90;99.90;;;;;;5047407;28;20033;-77
2021/06/21 07:16:17;;;;;;;1.83;1.30;;;14.80;99.90;;;;;;5045694;28;20045;-76
2021/06/21 07:18:43;;;;;;;1.10;0.90;;;14.90;99.90;;;;;;5046866;28;20029;-77
2021/06/21 07:21:09;;;;;;;3.85;1.23;;;14.90;99.90;;;;;;5046896;28;20077;-75
2021/06/21 07:23:34;;;;;;;3.35;1.38;;;14.90;99.90;;;;;;5045180;28;20089;-77
2021/06/21 07:26:00;;;;;;;1.42;0.90;;;14.90;99.90;;;;;;5045428;28;20038;-77
2021/06/21 07:28:26;;;;;;;1.52;0.73;;;14.90;99.90;;;;;;5042206;28;20022;-77
2021/06/21 07:30:51;;;;;;;2.47;1.20;;;14.90;99.90;;;;;;5034394;28;20044;-77
2021/06/21 07:33:17;;;;;;;1.95;0.90;;;15.00;99.90;;;;;;5046168;28;20044;-73
2021/06/21 07:35:43;;;;;;;2.35;0.90;;;15.00;99.90;;;;;;5046032;28;20018;-76
2021/06/21 07:38:10;;;;;;;1.30;0.95;;;15.00;99.90;;;;;;5061801;28;20029;-76
2021/06/21 07:40:37;;;;;;;2.58;1.30;;;15.00;99.90;;;;;;5046361;28;20034;-74
2021/06/21 07:43:03;;;;;;;1.20;0.75;;;15.00;99.90;;;;;;5046510;28;20028;-74
2021/06/21 07:45:29;;;;;;;1.73;0.82;;;15.00;99.90;;;;;;5045846;28;20108;-74
2021/06/21 07:47:57;;;;;;;3.35;1.08;;;15.00;99.90;;;;;;5045982;28;20481;-75
2021/06/21 07:50:23;;;;;;;3.65;1.20;;;15.00;99.90;;;;;;5044872;28;20060;-74
2021/06/21 07:52:49;;;;;;;1.95;1.02;;;15.00;99.90;;;;;;5046219;28;20033;-75
2021/06/21 07:55:14;;;;;;;1.73;0.73;;;15.00;99.90;;;;;;5044777;28;20128;-76
2021/06/21 07:57:40;;;;;;;1.13;0.82;;;15.00;99.90;;;;;;5046082;28;20076;-77
2021/06/21 08:00:06;;;;;;;0.88;0.60;;;15.10;99.90;;;;;;5060356;28;20037;-79
2021/06/21 08:02:32;;;;;;;1.75;1.00;;;15.10;99.90;;;;;;5045195;28;20034;-70
2021/06/21 08:04:57;;;;;;;0.90;0.77;;;15.10;99.90;;;;;;5045452;28;20036;-78
2021/06/21 08:07:23;;;;;;;0.88;0.68;;;15.10;99.90;;;;;;5045268;28;20025;-76
2021/06/21 08:09:49;;;;;;;1.23;0.88;;;15.10;99.90;;;;;;5044695;28;20030;-76
2021/06/21 08:12:15;;;;;;;0.52;0.45;;;15.20;99.90;;;;;;5045215;28;20116;-74
2021/06/21 08:14:42;;;;;;;0.63;0.45;;;15.20;99.90;;;;;;5060227;28;20060;-76
2021/06/21 08:17:08;;;;;;;2.47;0.63;;;15.20;99.90;;;;;;5061483;28;20037;-72
2021/06/21 08:19:34;;;;;;;0.98;0.60;;;15.40;99.90;;;;;;5060701;28;20025;-71
2021/06/21 08:21:59;;;;;;;0.70;0.43;;;15.20;99.90;;;;;;5045500;28;20098;-73
2021/06/21 08:24:25;;;;;;;2.05;0.50;;;15.40;99.90;;;;;;5061336;28;20421;-77
2021/06/21 08:26:51;;;;;;;1.30;0.45;;;15.40;99.90;;;;;;5049079;28;20092;-78
2021/06/21 08:29:16;;;;;;;0.55;0.40;;;15.50;99.90;;;;;;5044288;28;20485;-74
2021/06/21 08:31:42;;;;;;;0.90;0.47;;;15.50;99.90;;;;;;5044716;28;20561;-79
2021/06/21 08:34:07;;;;;;;1.17;0.60;;;15.50;99.90;;;;;;5043419;28;20104;-70
2021/06/21 08:36:33;;;;;;;0.45;0.40;;;15.60;99.90;;;;;;5044918;28;20037;-74
2021/06/21 08:38:59;;;;;;;0.30;0.20;;;15.60;99.90;;;;;;5044472;28;20029;-73
2021/06/21 08:41:25;;;;;;;0.85;0.47;;;15.60;99.90;;;;;;5045560;28;20033;-76
2021/06/21 08:43:52;;;;;;;0.47;0.20;;;15.60;99.90;;;;;;5042476;28;20136;-73
2021/06/21 08:46:19;;;;;;;0.65;0.65;;;15.70;99.90;;;;;;5041842;28;20036;-75
2021/06/21 08:48:46;;;;;;;0.80;0.52;;;15.70;99.90;;;;;;5043017;28;20072;-76
2021/06/21 08:51:13;;;;;;;0.43;0.40;;;15.70;99.90;;;;;;5044426;28;20109;-73
2021/06/21 08:53:38;;;;;;;0.50;0.43;;;15.70;99.90;;;;;;5040607;28;20045;-74
2021/06/21 08:56:06;;;;;;;0.40;0.40;;;15.70;99.90;;;;;;5043529;28;20430;-76
2021/06/21 08:58:32;;;;;;;1.02;0.50;;;15.70;99.90;;;;;;5043890;28;20029;-75
2021/06/21 09:00:58;;;;;;;0.70;0.45;;;15.80;99.90;;;;;;5043473;28;20044;-73
2021/06/21 09:03:24;;;;;;;0.38;0.35;;;15.70;99.90;;;;;;5041336;28;20097;-75
2021/06/21 09:05:50;;;;;;;0.60;0.43;;;15.70;99.90;;;;;;5044985;28;20098;-72
2021/06/21 09:08:16;;;;;;;1.98;0.85;;;15.70;99.90;;;;;;5042779;28;20049;-77
2021/06/21 09:10:42;;;;;;;1.02;0.70;;;15.70;99.90;;;;;;5041294;28;20106;-75
2021/06/21 09:13:19;;;;;;;0.93;0.50;;;15.60;99.90;;;;;;5042194;28;20147;-73
2021/06/21 09:15:56;;;;;;;0.52;0.50;;;15.60;99.90;;;;;;5023469;28;20033;-75
2021/06/21 09:18:36;;;;;;;0.38;0.25;;;15.80;99.90;;;;;;5024175;28;20494;-76
2021/06/21 09:21:24;;;;;;;0.80;0.40;;;15.80;99.90;;;;;;5024884;28;20033;-73
2021/06/21 09:23:54;;;;;;;0.85;0.52;;;15.90;99.90;;;;;;5023326;28;20033;-73
2021/06/21 09:26:32;;;;;;;1.00;0.68;;;16.00;99.90;;;;;;5025395;28;20148;-74
2021/06/21 09:28:59;;;;;;;0.93;0.63;;;16.10;99.90;;;;;;5024561;28;20034;-74
2021/06/21 09:31:27;;;;;;;1.17;0.80;;;16.20;99.90;;;;;;5024022;28;20084;-75
2021/06/21 09:34:16;;;;;;;1.70;0.65;;;16.30;99.90;;;;;;5024759;28;20030;-70
2021/06/21 09:36:41;;;;;;;0.80;0.70;;;16.30;99.90;;;;;;5024728;28;20026;-70
2021/06/21 09:39:21;;;;;;;0.77;0.60;;;16.30;99.90;;;;;;5024176;28;20036;-73
2021/06/21 09:42:15;;;;;;;3.20;1.02;;;16.40;99.90;;;;;;5022454;28;20056;-73
2021/06/21 09:44:44;;;;;;;0.40;0.40;;;16.30;99.90;;;;;;5023505;28;20592;-74
2021/06/21 09:47:20;;;;;;;0.88;0.68;;;16.20;99.90;;;;;;5024996;28;20371;-71
2021/06/21 09:50:08;;;;;;;1.88;0.80;;;16.20;99.90;;;;;;5024195;28;20034;-72
2021/06/21 09:52:35;;;;;;;0.82;0.50;;;16.20;99.90;;;;;;5037951;28;20048;-73
2021/06/21 09:55:09;;;;;;;0.52;0.50;;;16.20;99.90;;;;;;5044162;28;20472;-72
2021/06/21 09:57:38;;;;;;;0.95;0.77;;;16.20;99.90;;;;;;5024239;28;20153;-70
2021/06/21 10:00:12;;;;;;;0.95;0.80;;;16.20;99.90;;;;;;5024715;28;20121;-71
2021/06/21 10:02:39;;;;;;;0.88;0.75;;;16.20;99.90;;;;;;5024284;28;20058;-72
2021/06/21 10:05:16;;;;;;;1.05;0.70;;;16.10;99.90;;;;;;5023966;28;20094;-76
2021/06/21 10:07:43;;;;;;;1.95;0.90;;;16.10;99.90;;;;;;5024125;28;20030;-72
2021/06/21 10:10:11;;;;;;;0.47;0.38;;;16.10;99.90;;;;;;5024144;28;20052;-74
2021/06/21 10:12:38;;;;;;;0.40;0.30;;;16.20;99.90;;;;;;5038004;28;20030;-71
2021/06/21 10:15:06;;;;;;;1.38;0.90;;;16.20;99.90;;;;;;5043956;28;20168;-73
2021/06/21 10:17:32;;;;;;;0.50;0.50;;;16.30;99.90;;;;;;5041142;28;20053;-75
2021/06/21 10:19:57;;;;;;;2.38;1.23;;;16.30;99.90;;;;;;5043807;28;20041;-72
2021/06/21 10:22:25;;;;;;;0.90;0.68;;;16.40;99.90;;;;;;5051765;28;20030;-72
2021/06/21 10:24:58;;;;;;;0.85;0.60;;;16.40;99.90;;;;;;5038587;28;20037;-73
2021/06/21 10:27:26;;;;;;;1.25;0.85;;;16.40;99.90;;;;;;5043948;28;20424;-72
2021/06/21 10:29:55;;;;;;;1.23;0.90;;;16.20;99.90;;;;;;5045338;28;20029;-72
2021/06/21 10:32:23;;;;;;;1.73;0.85;;;16.40;99.90;;;;;;5063829;28;20398;-73
2021/06/21 10:34:49;;;;;;;1.17;0.85;;;16.40;99.90;;;;;;5047838;28;20022;-73
2021/06/21 10:37:18;;;;;;;1.42;1.00;;;16.30;99.90;;;;;;5055632;28;20029;-72
2021/06/21 10:39:52;;;;;;;1.33;0.85;;;16.50;99.90;;;;;;5047761;28;20500;-72
2021/06/21 10:42:23;;;;;;;1.65;1.02;;;16.50;99.90;;;;;;5048173;28;20033;-73
2021/06/21 10:44:58;;;;;;;2.05;0.98;;;16.50;99.90;;;;;;5046709;28;20096;-73
2021/06/21 10:47:23;;;;;;;1.35;0.93;;;16.40;99.90;;;;;;5047278;28;20030;-74
2021/06/21 10:49:58;;;;;;;1.88;1.10;;;16.40;99.90;;;;;;5046275;28;20049;-74
2021/06/21 10:52:40;;;;;;;2.13;1.27;;;16.40;99.90;;;;;;5047735;28;20113;-73
2021/06/21 10:55:22;;;;;;;1.05;0.88;;;16.40;99.90;;;;;;5046039;28;20065;-76
2021/06/21 10:58:06;;;;;;;1.55;1.15;;;16.40;99.90;;;;;;5046350;28;20367;-74
2021/06/21 11:00:33;;;;;;;1.73;1.13;;;16.30;99.90;;;;;;5046949;28;20029;-76
2021/06/21 11:03:00;;;;;;;1.40;1.15;;;16.30;99.90;;;;;;5047415;28;20078;-75
2021/06/21 11:05:42;;;;;;;1.77;1.10;;;16.30;99.90;;;;;;5054305;28;20037;-75
2021/06/21 11:08:21;;;;;;;1.73;0.95;;;16.30;99.90;;;;;;5041693;28;20060;-75
2021/06/21 11:10:56;;;;;;;1.50;1.15;;;16.30;99.90;;;;;;5045983;28;20022;-77
2021/06/21 11:13:36;;;;;;;1.75;1.33;;;16.30;99.90;;;;;;5046033;28;20037;-76
2021/06/21 11:16:14;;;;;;;3.53;1.27;;;16.40;99.90;;;;;;5047078;28;20029;-76
2021/06/21 11:18:44;;;;;;;2.53;1.23;;;16.40;99.90;;;;;;5046582;28;20033;-75
2021/06/21 11:21:15;;;;;;;1.40;1.20;;;16.40;99.90;;;;;;5047219;28;20052;-76
2021/06/21 11:23:48;;;;;;;3.58;1.23;;;16.50;99.90;;;;;;5046227;28;20036;-77
2021/06/21 11:26:15;;;;;;;2.13;0.73;;;16.50;99.90;;;;;;5046714;28;20110;-75
2021/06/21 11:28:43;;;;;;;4.20;1.15;;;16.50;99.90;;;;;;5045118;28;20033;-75
2021/06/21 11:31:30;;;;;;;1.52;1.10;;;16.60;99.90;;;;;;5046309;28;20029;-74
2021/06/21 11:33:55;;;;;;;2.75;1.30;;;16.60;99.90;;;;;;5046693;28;20048;-77
2021/06/21 11:36:39;;;;;;;2.35;1.48;;;16.60;99.90;;;;;;5052165;28;20021;-76
2021/06/21 11:39:25;;;;;;;2.20;0.95;;;16.60;99.90;;;;;;5046457;28;20037;-76
2021/06/21 11:42:04;;;;;;;1.38;1.00;;;16.70;99.90;;;;;;5044953;28;20056;-76
2021/06/21 11:44:41;;;;;;;1.55;0.98;;;16.60;99.90;;;;;;5046164;28;20033;-74
2021/06/21 11:47:19;;;;;;;2.28;1.40;;;16.50;99.90;;;;;;5045102;28;20026;-75
2021/06/21 11:49:47;;;;;;;1.92;1.30;;;16.40;99.90;;;;;;5045251;28;20037;-75
2021/06/21 11:52:24;;;;;;;1.83;1.27;;;16.50;99.90;;;;;;5045163;28;20104;-72
2021/06/21 11:54:52;;;;;;;1.25;0.95;;;16.60;99.90;;;;;;5046915;28;20045;-75
2021/06/21 11:57:19;;;;;;;1.90;1.13;;;16.50;99.90;;;;;;5044504;28;20395;-74
2021/06/21 11:59:48;;;;;;;1.13;0.93;;;16.50;99.90;;;;;;5046023;28;20057;-73
2021/06/21 12:02:20;;;;;;;1.00;0.90;;;16.50;99.90;;;;;;5046795;28;20054;-75
2021/06/21 12:04:47;;;;;;;0.98;0.85;;;16.60;99.90;;;;;;5046000;28;20413;-73
2021/06/21 12:07:31;;;;;;;1.65;0.90;;;16.60;99.90;;;;;;5045075;28;20087;-72
2021/06/21 12:09:59;;;;;;;1.70;0.90;;;16.60;99.90;;;;;;5045307;28;20030;-73
2021/06/21 12:12:31;;;;;;;0.95;0.85;;;16.60;99.90;;;;;;5045865;28;20037;-71
2021/06/21 12:14:58;;;;;;;1.33;1.10;;;16.60;99.90;;;;;;5046015;28;20032;-74
2021/06/21 12:17:27;;;;;;;1.75;0.82;;;16.60;99.90;;;;;;5046119;28;20088;-71
2021/06/21 12:20:09;;;;;;;16.98;1.08;;;16.60;99.90;;;;;;5045744;28;20474;-73
2021/06/21 12:22:37;;;;;;;1.00;0.70;;;16.70;99.90;;;;;;5045842;28;20448;-72
2021/06/21 12:25:05;;;;;;;2.28;1.40;;;16.70;99.90;;;;;;5045862;28;20057;-73
2021/06/21 12:27:32;;;;;;;1.10;0.85;;;16.80;99.90;;;;;;5045380;28;20021;-73
2021/06/21 12:29:58;;;;;;;1.88;1.00;;;16.90;99.90;;;;;;5046428;28;20022;-73
2021/06/21 12:32:29;;;;;;;0.80;0.50;;;16.90;99.90;;;;;;5046095;28;20022;-72
2021/06/21 12:34:58;;;;;;;0.47;0.40;;;16.90;99.90;;;;;;5045044;28;20385;-72
2021/06/21 12:37:33;;;;;;;1.13;0.73;;;17.10;99.90;;;;;;5045638;28;20025;-71
2021/06/21 12:39:59;;;;;;;0.85;0.50;;;17.10;99.90;;;;;;5045191;28;20029;-72
2021/06/21 12:42:26;;;;;;;1.60;0.47;;;17.20;99.90;;;;;;5044326;28;20030;-72
2021/06/21 12:44:52;;;;;;;1.13;0.80;;;17.20;99.90;;;;;;5045590;28;20052;-73
2021/06/21 12:47:19;;;;;;;0.73;0.50;;;17.20;99.90;;;;;;5045017;28;20466;-69
2021/06/21 12:49:46;;;;;;;0.43;0.43;;;17.30;99.90;;;;;;5045295;28;20415;-72
2021/06/21 12:52:12;;;;;;;2.00;0.70;;;17.30;99.90;;;;;;5045272;28;20032;-74
2021/06/21 12:54:38;;;;;;;0.43;0.43;;;17.40;99.90;;;;;;5045230;28;20038;-73
2021/06/21 12:57:05;;;;;;;2.20;0.45;;;17.40;99.90;;;;;;5044533;28;20026;-71